Data for 04/28/2008

Time Sea-Level Adjusted Pressure Absolute Pressure Temperature Relative Humidity Dew Point   
(mb) (inHg) (mb) (inHg) (C) (F) (%) (C) (F)
00:05 1021 30.15 850 25.1 8.3 46.9 35 -6.2 20.8
00:10 1021 30.15 850 25.1 8.1 46.5 36 -6 21.1
00:15 1021 30.15 850 25.1 8 46.3 36 -6.3 20.7
00:20 1020 30.12 850 25.1 8 46.4 35 -6.4 20.5
00:25 1020 30.12 850 25.1 8.1 46.5 35 -6.4 20.5
00:30 1020 30.12 850 25.1 8 46.3 36 -6.1 21
00:35 1020 30.12 850 25.1 7.7 45.9 37 -6.1 21.1
00:40 1020 30.12 850 25.1 7.6 45.7 37 -6 21.2
00:45 1020 30.12 850 25.1 7.6 45.6 37 -6.1 21
00:50 1020 30.12 850 25.1 7.7 45.8 37 -6 21.1
00:55 1020 30.12 850 25.1 7.6 45.6 37 -6.1 20.9
01:00 1020 30.12 850 25.1 7.5 45.4 38 -6.1 21
01:05 1020 30.12 850 25.1 7.5 45.4 36 -6.6 20.2
01:10 1020 30.12 850 25.1 7.6 45.7 35 -6.7 19.9
01:15 1020 30.12 850 25.1 7.6 45.7 35 -6.7 19.9
01:20 1020 30.12 850 25.1 7.7 45.9 36 -6.5 20.3
01:25 1020 30.12 850 25.1 7.7 45.8 40 -4.9 23.2
01:30 1020 30.12 850 25.1 6.9 44.5 43 -4.8 23.3
01:35 1020 30.12 850 25.1 6.7 44.1 43 -5 23
01:40 1020 30.12 850 25.1 6.8 44.2 41 -5.4 22.2
01:45 1020 30.12 850 25.1 6.7 44.1 41 -5.7 21.7
01:50 1020 30.12 849 25.07 6.9 44.4 41 -5.4 22.3
01:55 1020 30.12 849 25.07 6.7 44 41 -5.6 21.9
02:00 1020 30.12 849 25.07 6.4 43.6 43 -5.2 22.6
02:05 1020 30.12 849 25.07 6.3 43.4 43 -5.5 22.1
02:10 1020 30.12 849 25.07 6.3 43.4 38 -6.9 19.6
02:15 1020 30.12 849 25.07 6.8 44.2 41 -5.5 22.1
02:20 1020 30.12 849 25.07 6.5 43.8 39 -6.5 20.3
02:25 1020 30.12 849 25.07 6.9 44.5 38 -6.5 20.3
02:30 1020 30.12 849 25.07 7 44.6 39 -6.2 20.9
02:35 1020 30.12 849 25.07 6.8 44.3 39 -6.1 21.1
02:40 1020 30.12 849 25.07 6.6 43.9 40 -6.1 21
02:45 1020 30.12 849 25.07 6.6 43.9 42 -5.5 22.1
02:50 1020 30.12 849 25.07 5.9 42.7 44 -5.5 22.1
02:55 1020 30.12 849 25.07 5.8 42.4 45 -5.2 22.7
03:00 1020 30.12 849 25.07 5.3 41.6 47 -5.1 22.8
03:05 1020 30.12 849 25.07 4.9 40.8 49 -4.9 23.2
03:10 1020 30.12 849 25.07 4.4 39.9 52 -4.7 23.5
03:15 1020 30.12 849 25.07 4.6 40.3 47 -5.8 21.6
03:20 1020 30.12 849 25.07 5.2 41.3 43 -6.4 20.5
03:25 1020 30.12 849 25.07 5.5 42 41 -6.6 20.1
03:30 1020 30.12 849 25.07 5.8 42.4 40 -6.7 19.9
03:35 1020 30.12 849 25.07 6 42.8 41 -6.4 20.4
03:40 1020 30.12 849 25.07 5.8 42.5 42 -6.2 20.9
03:45 1020 30.12 849 25.07 5.7 42.2 43 -6.1 21
03:50 1020 30.12 849 25.07 5.6 42.1 42 -6.3 20.7
03:55 1020 30.12 849 25.07 5.6 42.1 42 -6.2 20.9
04:00 1019 30.09 849 25.07 5.6 42 42 -6.3 20.6
04:05 1019 30.09 849 25.07 5.7 42.3 42 -6.2 20.8
04:10 1019 30.09 849 25.07 5.8 42.4 42 -6.2 20.9
04:15 1019 30.09 849 25.07 5.7 42.3 42 -6.3 20.7
04:20 1019 30.09 849 25.07 5.8 42.4 43 -5.9 21.3
04:25 1019 30.09 849 25.07 5.6 42.1 43 -6 21.3
04:30 1019 30.09 849 25.07 5.5 41.9 44 -5.9 21.4
04:35 1019 30.09 849 25.07 5.4 41.7 45 -5.6 22
04:40 1019 30.09 849 25.07 5.1 41.2 46 -5.6 21.8
04:45 1019 30.09 849 25.07 5.2 41.4 46 -5.5 22
04:50 1019 30.09 849 25.07 5.2 41.3 45 -5.6 21.8
04:55 1020 30.12 849 25.07 5.4 41.7 44 -5.9 21.3
05:00 1020 30.12 849 25.07 5.6 42.1 43 -5.9 21.4
05:05 1020 30.12 849 25.07 5.8 42.4 43 -5.9 21.4
05:10 1020 30.12 849 25.07 5.9 42.6 43 -5.8 21.6
05:15 1020 30.12 849 25.07 5.8 42.4 44 -5.6 21.9
05:20 1019 30.09 849 25.07 5.6 42.1 44 -5.6 22
05:25 1019 30.09 849 25.07 5.6 42.1 44 -5.6 22
05:30 1019 30.09 849 25.07 5.6 42.2 44 -5.8 21.6
05:35 1019 30.09 849 25.07 5.9 42.6 43 -5.9 21.4
05:40 1019 30.09 849 25.07 6 42.7 42 -6.1 21
05:45 1019 30.09 849 25.07 6.1 43 41 -6.1 21
05:50 1019 30.09 849 25.07 6.2 43.2 40 -6.2 20.8
05:55 1019 30.09 849 25.07 6.4 43.4 39 -6.5 20.3
06:00 1019 30.09 848 25.04 6.4 43.5 40 -6.2 20.9
06:05 1019 30.09 848 25.04 6.3 43.4 40 -6.5 20.4
06:10 1019 30.09 848 25.04 6.3 43.4 41 -6 21.3
06:15 1019 30.09 848 25.04 6.2 43.2 40 -6.2 20.8
06:20 1019 30.09 848 25.04 6.2 43.2 41 -6.2 20.9
06:25 1019 30.09 848 25.04 6.1 43.1 42 -6 21.3
06:30 1019 30.09 848 25.04 6.1 42.9 42 -5.9 21.3
06:35 1019 30.09 848 25.04 6 42.8 42 -6 21.2
06:40 1019 30.09 848 25.04 6 42.8 42 -6 21.2
06:45 1019 30.09 848 25.04 6 42.8 43 -5.7 21.7
06:50 1019 30.09 848 25.04 5.8 42.5 43 -5.9 21.5
06:55 1019 30.09 848 25.04 5.8 42.5 42 -6 21.2
07:00 1019 30.09 848 25.04 6 42.7 42 -5.9 21.4
07:05 1019 30.09 848 25.04 5.9 42.7 43 -5.8 21.5
07:10 1019 30.09 848 25.04 5.9 42.6 42 -6 21.2
07:15 1019 30.09 848 25.04 6 42.8 42 -5.8 21.5
07:20 1019 30.09 848 25.04 6 42.8 45 -5 23
07:25 1019 30.09 848 25.04 5.8 42.5 46 -4.9 23.2
07:30 1019 30.09 848 25.04 5.8 42.5 46 -5 23.1
07:35 1019 30.09 848 25.04 6.1 42.9 44 -5.2 22.7
07:40 1019 30.09 848 25.04 6.4 43.6 44 -5 23
07:45 1019 30.09 848 25.04 6.8 44.3 42 -5.2 22.6
07:50 1019 30.09 848 25.04 7.3 45.1 40 -5.5 22.2
07:55 1019 30.09 849 25.07 7.7 45.9 39 -5.4 22.2
08:00 1019 30.09 849 25.07 8.2 46.8 38 -5.1 22.8
08:05 1019 30.09 849 25.07 8.5 47.2 39 -4.8 23.4
08:10 1019 30.09 849 25.07 8.6 47.5 40 -4.4 24.1
08:15 1019 30.09 849 25.07 8.6 47.5 40 -4.2 24.5
08:20 1019 30.09 849 25.07 8.6 47.5 39 -4.5 23.9
08:25 1019 30.09 849 25.07 8.6 47.5 41 -3.8 25.1
08:30 1019 30.09 849 25.07 8.6 47.5 42 -3.4 25.8
08:35 1019 30.09 849 25.07 8.6 47.5 42 -3.5 25.8
08:40 1019 30.09 849 25.07 8.8 47.9 40 -4.1 24.6
08:45 1019 30.09 849 25.07 9.2 48.5 40 -3.6 25.5
08:50 1019 30.09 849 25.07 9.3 48.7 40 -3.7 25.4
08:55 1019 30.09 849 25.07 9.7 49.4 38 -3.7 25.3
09:00 1019 30.09 849 25.07 10.4 50.7 34 -4.7 23.5
09:05 1019 30.09 849 25.07 11.4 52.5 30 -5.7 21.8
09:10 1019 30.09 849 25.07 12 53.5 28 -5.8 21.5
09:15 1019 30.09 849 25.07 12.4 54.3 27 -5.9 21.3
09:20 1019 30.09 849 25.07 12.8 55 27 -5.9 21.4
09:25 1019 30.09 849 25.07 12.7 54.8 27 -5.6 21.9
09:30 1019 30.09 849 25.07 12.9 55.3 27 -5.8 21.5
09:35 1019 30.09 849 25.07 13.6 56.4 26 -5.5 22.1
09:40 1019 30.09 849 25.07 13.3 55.9 26 -5.7 21.7
09:45 1019 30.09 849 25.07 13.3 56 26 -5.9 21.4
09:50 1019 30.09 849 25.07 13.6 56.5 25 -6.1 21
09:55 1019 30.09 848 25.04 13.9 56.9 24 -6.1 21
10:00 1019 30.09 848 25.04 13.3 56 25 -6.1 21
10:05 1019 30.09 848 25.04 13.3 56 26 -5.7 21.8
10:10 1019 30.09 849 25.07 13.8 56.8 25 -5.7 21.8
10:15 1019 30.09 848 25.04 14.2 57.5 25 -5.5 22.2
10:20 1019 30.09 848 25.04 14.1 57.4 25 -5.6 22
10:25 1019 30.09 848 25.04 14.2 57.6 24 -6 21.2
10:30 1019 30.09 848 25.04 14 57.3 24 -6.1 20.9
10:35 1019 30.09 848 25.04 14.6 58.4 23 -6.2 20.8
10:40 1019 30.09 848 25.04 15.4 59.7 20 -7.6 18.3
10:45 1019 30.09 848 25.04 15.9 60.6 19 -7.9 17.8
10:50 1019 30.09 848 25.04 16.3 61.3 17 -8.4 16.9
10:55 1019 30.09 848 25.04 16.2 61.2 19 -7.4 18.7
11:00 1019 30.09 848 25.04 16 60.9 20 -6.6 20.1
11:05 1019 30.09 848 25.04 16.4 61.4 20 -6.6 20.2
11:10 1019 30.09 848 25.04 16.4 61.6 20 -6.7 19.9
11:15 1019 30.09 848 25.04 16.3 61.3 21 -6.1 21
11:20 1019 30.09 848 25.04 16.2 61.1 21 -6.1 20.9
11:25 1019 30.09 848 25.04 16.1 61 21 -6.2 20.8
11:30 1019 30.09 848 25.04 15.5 59.8 22 -6.4 20.5
11:35 1019 30.09 848 25.04 16.3 61.3 20 -6.5 20.4
11:40 1018 30.06 848 25.04 16.8 62.2 20 -5.9 21.4
11:45 1018 30.06 848 25.04 16.3 61.3 22 -5.2 22.6
11:50 1018 30.06 848 25.04 15.6 60 23 -5.4 22.3
11:55 1018 30.06 847 25.01 15 59 24 -5.1 22.8
12:00 1018 30.06 847 25.01 15.6 60.1 24 -5.1 22.8
12:05 1018 30.06 847 25.01 16.5 61.7 22 -5.3 22.5
12:10 1018 30.06 847 25.01 16.7 62 22 -5 23
12:15 1018 30.06 847 25.01 17.8 64.1 21 -4.5 23.9
12:20 1018 30.06 847 25.01 18.4 65.1 19 -5.8 21.6
12:25 1018 30.06 847 25.01 18.6 65.5 18 -6.1 21
12:30 1018 30.06 847 25.01 17.8 64 19 -5.9 21.3
12:35 1017 30.03 847 25.01 17.5 63.5 20 -5.6 21.9
12:40 1017 30.03 847 25.01 18.1 64.5 19 -5.8 21.5
12:45 1017 30.03 846 24.98 18.9 66 19 -5.1 22.9
12:50 1017 30.03 846 24.98 18.9 66 19 -5 23
12:55 1017 30.03 846 24.98 18.8 65.8 19 -4.9 23.2
13:00 1017 30.03 846 24.98 19.4 67 19 -4.4 24
13:05 1017 30.03 846 24.98 19.6 67.2 19 -4.3 24.2
13:10 1017 30.03 846 24.98 19.6 67.2 19 -4.9 23.2
13:15 1017 30.03 846 24.98 19.1 66.4 20 -4.4 24.1
13:20 1016 30 846 24.98 19.8 67.6 19 -4.2 24.4
13:25 1016 30 846 24.98 19.8 67.6 20 -3.8 25.1
13:30 1016 30 845 24.95 18.8 65.8 21 -3.8 25.2
13:35 1016 30 845 24.95 18.8 65.8 21 -4.2 24.5
13:40 1016 30 845 24.95 18.9 66.1 21 -3.9 24.9
13:45 1016 30 845 24.95 19.8 67.7 20 -3.5 25.7
13:50 1016 30 845 24.95 20.4 68.8 20 -3 26.5
13:55 1016 30 845 24.95 20.9 69.5 20 -2.7 27.1
14:00 1016 30 845 24.95 21.1 70 19 -3.2 26.2
14:05 1016 30 845 24.95 20.7 69.2 19 -3.4 26
14:10 1016 30 845 24.95 20.8 69.4 19 -3.6 25.5
14:15 1016 30 845 24.95 20.4 68.7 19 -4 24.9
14:20 1016 30 845 24.95 19.8 67.6 19 -4.1 24.7
14:25 1016 30 845 24.95 19.8 67.6 19 -4.1 24.6
14:30 1016 30 845 24.95 19.6 67.3 20 -3.7 25.3
14:35 1016 30 845 24.95 20.2 68.4 20 -3.5 25.7
14:40 1016 30 845 24.95 20.7 69.3 19 -3.3 26
14:45 1016 30 845 24.95 20.9 69.6 20 -3 26.6
14:50 1016 30 845 24.95 20.2 68.4 21 -2.8 27
14:55 1016 30 845 24.95 20.3 68.6 19 -4 24.7
15:00 1015 29.97 845 24.95 20.3 68.6 19 -4.3 24.3
15:05 1015 29.97 845 24.95 20.6 69.2 17 -4.8 23.4
15:10 1015 29.97 844 24.92 20.3 68.6 19 -4 24.8
15:15 1015 29.97 844 24.92 20 68 19 -4.2 24.4
15:20 1015 29.97 844 24.92 20 68 20 -3.2 26.2
15:25 1015 29.97 844 24.92 20.3 68.5 20 -3 26.6
15:30 1015 29.97 844 24.92 20.7 69.3 19 -3.3 26.1
15:35 1015 29.97 844 24.92 20.4 68.6 21 -2.8 26.9
15:40 1015 29.97 844 24.92 20.8 69.4 19 -3.3 26.1
15:45 1015 29.97 844 24.92 21.5 70.6 17 -4.3 24.3
15:50 1015 29.97 844 24.92 21.2 70.2 18 -4 24.8
15:55 1015 29.97 844 24.92 20.3 68.6 18 -4.3 24.3
16:00 1015 29.97 844 24.92 20.1 68.2 19 -3.9 25
16:05 1015 29.97 844 24.92 20.3 68.5 18 -4.4 24.1
16:10 1015 29.97 844 24.92 20.7 69.3 17 -5.1 22.9
16:15 1015 29.97 844 24.92 21 69.8 17 -4.7 23.5
16:20 1014 29.94 844 24.92 20.8 69.4 18 -4.4 24.1
16:25 1014 29.94 844 24.92 20.6 69 18 -4.5 23.9
16:30 1014 29.94 843 24.89 21.2 70.1 16 -5.3 22.5
16:35 1014 29.94 843 24.89 21.4 70.5 17 -4.8 23.3
16:40 1014 29.94 843 24.89 20.7 69.2 18 -4.5 23.9
16:45 1014 29.94 843 24.89 20.9 69.6 17 -5.1 22.7
16:50 1014 29.94 843 24.89 21.4 70.5 16 -5.5 22
16:55 1014 29.94 843 24.89 21.3 70.3 16 -5.4 22.2
17:00 1014 29.94 843 24.89 20.6 69.1 16 -5.8 21.6
17:05 1014 29.94 843 24.89 20.5 68.9 16 -5.8 21.5
17:10 1014 29.94 843 24.89 20.3 68.6 18 -4.6 23.6
17:15 1014 29.94 843 24.89 20.6 69.1 18 -4.6 23.7
17:20 1014 29.94 843 24.89 20.8 69.5 17 -5.4 22.3
17:25 1013 29.91 843 24.89 20.9 69.6 16 -5.9 21.4
17:30 1013 29.91 843 24.89 20.8 69.5 17 -4.8 23.4
17:35 1013 29.91 843 24.89 20.5 68.8 17 -5.1 22.8
17:40 1013 29.91 843 24.89 20.4 68.8 17 -5.5 22.2
17:45 1013 29.91 843 24.89 20.4 68.8 17 -5.1 22.8
17:50 1013 29.91 843 24.89 20.4 68.7 17 -5.1 22.8
17:55 1013 29.91 842 24.86 20.4 68.7 18 -4.8 23.4
18:00 1013 29.91 842 24.86 20.1 68.2 17 -5.2 22.6
18:05 1013 29.91 842 24.86 20 68 17 -5.5 22
18:10 1013 29.91 842 24.86 20.3 68.5 18 -4.9 23.2
18:15 1013 29.91 842 24.86 20.3 68.6 17 -5.1 22.8
18:20 1013 29.91 842 24.86 20.1 68.1 18 -4.6 23.7
18:25 1013 29.91 842 24.86 20 68 18 -5.2 22.6
18:30 1013 29.91 842 24.86 19.9 67.7 18 -4.9 23.2
18:35 1013 29.91 842 24.86 19.8 67.7 16 -6.2 20.8
18:40 1013 29.91 842 24.86 19.8 67.7 18 -5.1 22.7
18:45 1013 29.91 842 24.86 19.7 67.4 17 -5.7 21.7
18:50 1013 29.91 842 24.86 19.4 67 17 -5.9 21.3
18:55 1013 29.91 842 24.86 19.4 66.9 18 -5.7 21.8
19:00 1013 29.91 842 24.86 19.3 66.8 19 -4.5 24
19:05 1013 29.91 842 24.86 19.2 66.5 20 -4.3 24.2
19:10 1013 29.91 842 24.86 19 66.3 20 -4 24.7
19:15 1013 29.91 842 24.86 19 66.1 20 -4.1 24.7
19:20 1013 29.91 842 24.86 18.9 65.9 20 -4.6 23.7
19:25 1013 29.91 842 24.86 18.8 65.8 20 -4.4 24.1
19:30 1013 29.91 842 24.86 18.6 65.6 20 -4.4 24.2
19:35 1013 29.91 842 24.86 18.5 65.2 21 -3.9 25
19:40 1013 29.91 842 24.86 18.2 64.7 22 -3.5 25.7
19:45 1013 29.91 842 24.86 17.9 64.3 22 -3.9 25
19:50 1013 29.91 842 24.86 17.8 64 21 -5 23
19:55 1013 29.91 842 24.86 17.8 64 23 -3.6 25.6
20:00 1013 29.91 842 24.86 17.5 63.4 23 -4 24.8
20:05 1012 29.88 842 24.86 17.3 63.1 21 -5.3 22.5
20:10 1012 29.88 842 24.86 17.3 63.2 21 -4.9 23.1
20:15 1012 29.88 842 24.86 17.2 62.9 22 -4.8 23.4
20:20 1012 29.88 842 24.86 17 62.5 21 -5.2 22.7
20:25 1012 29.88 842 24.86 16.9 62.5 21 -5.5 22
20:30 1012 29.88 842 24.86 16.7 62.1 22 -4.9 23.3
20:35 1012 29.88 842 24.86 16.2 61.1 24 -4.1 24.7
20:40 1012 29.88 842 24.86 15.8 60.4 23 -5 22.9
20:45 1012 29.88 842 24.86 15.6 60 25 -4.5 23.8
20:50 1012 29.88 841 24.83 15.4 59.6 25 -4.3 24.2
20:55 1012 29.88 841 24.83 15.4 59.8 24 -5.1 22.8
21:00 1012 29.88 841 24.83 15.6 60.1 23 -5.6 22
21:05 1012 29.88 841 24.83 15.7 60.3 23 -5.3 22.4
21:10 1012 29.88 841 24.83 15.8 60.4 23 -5.4 22.2
21:15 1012 29.88 841 24.83 16 60.9 22 -5.4 22.2
21:20 1012 29.88 841 24.83 16.1 61 21 -6 21.2
21:25 1012 29.88 841 24.83 16.1 60.9 23 -5 23
21:30 1012 29.88 841 24.83 15.9 60.6 22 -5.4 22.3
21:35 1012 29.88 841 24.83 15.9 60.6 23 -5.3 22.4
21:40 1012 29.88 841 24.83 16 60.8 22 -5.5 22
21:45 1012 29.88 841 24.83 15.8 60.5 23 -4.9 23.2
21:50 1012 29.88 841 24.83 15.6 60.1 24 -4.9 23.2
21:55 1012 29.88 841 24.83 15.3 59.6 26 -4.2 24.5
22:00 1012 29.88 841 24.83 14.9 58.8 26 -4.5 23.9
22:05 1012 29.88 841 24.83 14.8 58.7 26 -4.4 24
22:10 1012 29.88 841 24.83 14.8 58.6 26 -4.6 23.8
22:15 1012 29.88 841 24.83 14.7 58.5 26 -4.7 23.5
22:20 1012 29.88 841 24.83 14.8 58.6 26 -4.6 23.7
22:25 1012 29.88 841 24.83 14.6 58.4 26 -4.5 23.9
22:30 1012 29.88 841 24.83 14.5 58.1 27 -4.4 24.1
22:35 1012 29.88 841 24.83 14.3 57.8 26 -4.7 23.5
22:40 1012 29.88 841 24.83 14.3 57.7 27 -4.4 24.1
22:45 1012 29.88 841 24.83 14.2 57.6 27 -4.5 23.8
22:50 1012 29.88 841 24.83 13.7 56.7 29 -4 24.7
22:55 1012 29.88 841 24.83 13.2 55.7 30 -3.9 25.1
23:00 1012 29.88 841 24.83 12.8 55.1 29 -4.7 23.5
23:05 1012 29.88 842 24.86 12.8 55.1 32 -3.5 25.8
23:10 1012 29.88 842 24.86 12.2 54 33 -3.6 25.5
23:15 1012 29.88 842 24.86 11.9 53.4 33 -3.9 24.9
23:20 1012 29.88 842 24.86 12.1 53.7 32 -4 24.8
23:25 1012 29.88 842 24.86 12.2 53.9 32 -4.1 24.6
23:30 1012 29.88 842 24.86 12.1 53.8 32 -4 24.7
23:35 1012 29.88 842 24.86 12.1 53.7 32 -4.1 24.5
23:40 1012 29.88 842 24.86 12.3 54.1 30 -4.6 23.6
23:45 1012 29.88 842 24.86 12.4 54.4 31 -4.3 24.2
23:50 1012 29.88 842 24.86 12.3 54.2 31 -4.3 24.2
23:55 1012 29.88 842 24.86 12.1 53.7 31 -4.7 23.5
24:00 1012 29.88 842 24.86 12.1 53.8 30 -4.9 23.2